Time;durP1;ratioP1;P1;durP2;ratioP2;P2;SDS_P1;SDS_P2;PMS_P1;PMS_P2;Temp;Humidity;BMP_temperature;BMP_pressure;BME280_temperature;BME280_humidity;BME280_pressure;Samples;Min_cycle;Max_cycle;Signal;HPM_P1;HPM_P2
2021/12/03 00:01:28;;;;;;;;;;;11.70;99.90;;;;;;5099286;28;1976;-52
2021/12/03 00:03:54;;;;;;;;;;;11.70;99.90;;;;;;5117637;28;1067;-52
2021/12/03 00:06:21;;;;;;;;;;;11.70;99.90;;;;;;5117623;28;835;-52
2021/12/03 00:08:47;;;;;;;;;;;11.70;99.90;;;;;;5118085;28;871;-52
2021/12/03 00:11:14;;;;;;;;;;;11.70;99.90;;;;;;5117723;28;890;-52
2021/12/03 00:13:40;;;;;;;;;;;11.70;99.90;;;;;;5117126;28;963;-52
2021/12/03 00:16:09;;;;;;;;;;;11.70;99.90;;;;;;5117650;28;846;-52
2021/12/03 00:18:36;;;;;;;;;;;11.60;99.90;;;;;;5117104;28;912;-52
2021/12/03 00:21:07;;;;;;;;;;;11.70;99.90;;;;;;5117288;28;1903;-51
2021/12/03 00:23:35;;;;;;;;;;;11.70;99.90;;;;;;5117218;28;1027;-51
2021/12/03 00:26:03;;;;;;;;;;;11.60;99.90;;;;;;5117537;28;882;-52
2021/12/03 00:28:30;;;;;;;;;;;11.60;99.90;;;;;;5117295;28;913;-51
2021/12/03 00:30:56;;;;;;;;;;;11.60;99.90;;;;;;5117413;28;865;-52
2021/12/03 00:33:22;;;;;;;;;;;11.60;99.90;;;;;;5117482;28;909;-52
2021/12/03 00:35:50;;;;;;;;;;;11.60;99.90;;;;;;5116946;28;1146;-52
2021/12/03 00:38:16;;;;;;;;;;;11.60;99.90;;;;;;5116761;28;924;-52
2021/12/03 00:40:43;;;;;;;;;;;11.60;99.90;;;;;;5116926;28;911;-52
2021/12/03 00:43:10;;;;;;;;;;;11.50;99.90;;;;;;5108888;27;1922;-52
2021/12/03 00:45:37;;;;;;;;;;;11.50;99.90;;;;;;5099062;28;897;-52
2021/12/03 00:48:04;;;;;;;;;;;11.50;99.90;;;;;;5107962;28;822;-52
2021/12/03 00:50:31;;;;;;;;;;;11.50;99.90;;;;;;5063243;28;915;-51
2021/12/03 00:52:57;;;;;;;;;;;11.50;99.90;;;;;;5098374;28;904;-52
2021/12/03 00:55:24;;;;;;;;;;;11.50;99.90;;;;;;5102370;28;988;-52
2021/12/03 00:57:51;;;;;;;;;;;11.50;99.90;;;;;;5112165;28;1336;-52
2021/12/03 01:00:23;;;;;;;;;;;11.50;99.90;;;;;;5106092;28;1020;-51
2021/12/03 01:02:51;;;;;;;;;;;11.50;99.90;;;;;;5097889;28;1909;-52
2021/12/03 01:05:18;;;;;;;;;;;11.50;99.90;;;;;;5097085;28;882;-52
2021/12/03 01:07:45;;;;;;;;;;;11.40;99.90;;;;;;5097941;28;867;-51
2021/12/03 01:10:11;;;;;;;;;;;11.50;99.90;;;;;;5097846;28;841;-52
2021/12/03 01:12:38;;;;;;;;;;;11.40;99.90;;;;;;5103432;28;865;-51
2021/12/03 01:15:05;;;;;;;;;;;11.40;99.90;;;;;;5102266;28;1117;-52
2021/12/03 01:17:31;;;;;;;;;;;11.40;99.90;;;;;;5097625;28;829;-51
2021/12/03 01:19:59;;;;;;;;;;;11.40;99.90;;;;;;5097575;28;876;-51
2021/12/03 01:22:25;;;;;;;;;;;11.40;99.90;;;;;;5097362;28;1959;-51
2021/12/03 01:24:52;;;;;;;;;;;11.40;99.90;;;;;;5097846;28;824;-51
2021/12/03 01:27:19;;;;;;;;;;;11.40;99.90;;;;;;5097473;28;784;-51
2021/12/03 01:29:45;;;;;;;;;;;11.40;99.90;;;;;;5095301;28;878;-51
2021/12/03 01:32:11;;;;;;;;;;;11.40;99.90;;;;;;5097414;28;857;-51
2021/12/03 01:34:37;;;;;;;;;;;11.40;99.90;;;;;;5097274;28;821;-51
2021/12/03 01:37:03;;;;;;;;;;;11.40;99.90;;;;;;5104124;28;1288;-51
2021/12/03 01:39:29;;;;;;;;;;;11.30;99.90;;;;;;5097291;28;879;-51
2021/12/03 01:41:55;;;;;;;;;;;11.30;99.90;;;;;;5097193;28;1906;-52
2021/12/03 01:44:22;;;;;;;;;;;11.30;99.90;;;;;;5097414;28;1023;-51
2021/12/03 01:46:53;;;;;;;;;;;11.30;99.90;;;;;;5097201;28;827;-51
2021/12/03 01:49:23;;;;;;;;;;;11.30;99.90;;;;;;5097355;28;809;-51
2021/12/03 01:51:50;;;;;;;;;;;11.30;99.90;;;;;;5046751;28;946;-51
2021/12/03 01:54:16;;;;;;;;;;;11.30;99.90;;;;;;5094772;28;1081;-51
2021/12/03 01:56:42;;;;;;;;;;;11.30;99.90;;;;;;5111225;28;1045;-51
2021/12/03 01:59:08;;;;;;;;;;;11.30;99.90;;;;;;5115956;28;876;-51
2021/12/03 02:01:34;;;;;;;;;;;11.30;99.90;;;;;;5115326;28;1984;-51
2021/12/03 02:04:01;;;;;;;;;;;11.20;99.90;;;;;;5115566;28;1141;-51
2021/12/03 02:06:27;;;;;;;;;;;11.20;99.90;;;;;;5115584;28;896;-51
2021/12/03 02:08:55;;;;;;;;;;;11.20;99.90;;;;;;5115250;28;876;-51
2021/12/03 02:11:23;;;;;;;;;;;11.20;99.90;;;;;;5116209;28;878;-51
2021/12/03 02:13:49;;;;;;;;;;;11.20;99.90;;;;;;5116000;28;880;-51
2021/12/03 02:16:16;;;;;;;;;;;11.20;99.90;;;;;;5097247;28;943;-51
2021/12/03 02:18:42;;;;;;;;;;;11.20;99.90;;;;;;5115727;28;820;-51
2021/12/03 02:21:09;;;;;;;;;;;11.10;99.90;;;;;;5115306;28;1902;-51
2021/12/03 02:23:35;;;;;;;;;;;11.20;99.90;;;;;;5115488;28;875;-51
2021/12/03 02:26:02;;;;;;;;;;;11.10;99.90;;;;;;5093721;28;1006;-51
2021/12/03 02:28:30;;;;;;;;;;;11.10;99.90;;;;;;5096676;28;994;-51
2021/12/03 02:30:57;;;;;;;;;;;11.10;99.90;;;;;;5096880;28;971;-51
2021/12/03 02:33:24;;;;;;;;;;;11.10;99.90;;;;;;5096653;28;868;-51
2021/12/03 02:35:52;;;;;;;;;;;11.10;99.90;;;;;;5096518;28;793;-51
2021/12/03 02:38:19;;;;;;;;;;;11.10;99.90;;;;;;5097500;28;895;-51
2021/12/03 02:40:45;;;;;;;;;;;11.10;99.90;;;;;;5078928;28;876;-51
2021/12/03 02:43:11;;;;;;;;;;;11.10;99.90;;;;;;5096455;28;1960;-51
2021/12/03 02:45:37;;;;;;;;;;;11.10;99.90;;;;;;5096650;28;896;-51
2021/12/03 02:48:04;;;;;;;;;;;11.10;99.90;;;;;;5096594;28;895;-51
2021/12/03 02:50:30;;;;;;;;;;;11.10;99.90;;;;;;5096395;28;946;-51
2021/12/03 02:52:58;;;;;;;;;;;11.00;99.90;;;;;;5104064;28;852;-51
2021/12/03 02:55:26;;;;;;;;;;;11.00;99.90;;;;;;5115510;28;891;-51
2021/12/03 02:57:53;;;;;;;;;;;11.00;99.90;;;;;;5114978;28;1092;-51
2021/12/03 03:00:21;;;;;;;;;;;11.00;99.90;;;;;;5115006;28;962;-51
2021/12/03 03:02:48;;;;;;;;;;;11.00;99.90;;;;;;5114014;28;1917;-51
2021/12/03 03:05:15;;;;;;;;;;;11.00;99.90;;;;;;5115273;28;837;-51
2021/12/03 03:07:41;;;;;;;;;;;11.00;99.90;;;;;;5115120;28;974;-51
2021/12/03 03:10:10;;;;;;;;;;;11.00;99.90;;;;;;5115294;28;920;-51
2021/12/03 03:12:39;;;;;;;;;;;11.00;99.90;;;;;;5114954;28;951;-51
2021/12/03 03:15:06;;;;;;;;;;;11.00;99.90;;;;;;5114089;28;885;-51
2021/12/03 03:17:32;;;;;;;;;;;11.00;99.90;;;;;;5115014;28;890;-51
2021/12/03 03:19:59;;;;;;;;;;;11.00;99.90;;;;;;5114859;28;871;-51
2021/12/03 03:22:27;;;;;;;;;;;10.90;99.90;;;;;;5114268;28;1901;-51
2021/12/03 03:24:59;;;;;;;;;;;10.90;99.90;;;;;;5115126;28;940;-51
2021/12/03 03:27:31;;;;;;;;;;;10.90;99.90;;;;;;5115834;28;930;-51
2021/12/03 03:29:59;;;;;;;;;;;10.90;99.90;;;;;;5118464;28;871;-51
2021/12/03 03:32:27;;;;;;;;;;;10.90;99.90;;;;;;5114821;28;1253;-51
2021/12/03 03:34:54;;;;;;;;;;;10.90;99.90;;;;;;5099701;28;872;-51
2021/12/03 03:37:21;;;;;;;;;;;10.90;99.90;;;;;;5099510;28;931;-51
2021/12/03 03:39:47;;;;;;;;;;;10.90;99.90;;;;;;5064477;28;1019;-51
2021/12/03 03:42:14;;;;;;;;;;;10.80;99.90;;;;;;5099293;28;1902;-51
2021/12/03 03:44:40;;;;;;;;;;;10.90;99.90;;;;;;5099605;28;930;-51
2021/12/03 03:47:07;;;;;;;;;;;10.80;99.90;;;;;;5099300;28;851;-51
2021/12/03 03:49:33;;;;;;;;;;;10.80;99.90;;;;;;5099429;28;892;-51
2021/12/03 03:52:01;;;;;;;;;;;10.80;99.90;;;;;;5100279;28;938;-51
2021/12/03 03:54:28;;;;;;;;;;;10.80;99.90;;;;;;5099272;28;1003;-51
2021/12/03 03:56:55;;;;;;;;;;;10.80;99.90;;;;;;5106673;28;1320;-51
2021/12/03 03:59:22;;;;;;;;;;;10.80;99.90;;;;;;5097573;28;979;-51
2021/12/03 04:01:49;;;;;;;;;;;10.80;99.90;;;;;;5097107;28;1905;-51
2021/12/03 04:04:15;;;;;;;;;;;10.80;99.90;;;;;;5116500;28;867;-51
2021/12/03 04:06:41;;;;;;;;;;;10.80;99.90;;;;;;5116067;28;931;-51
2021/12/03 04:09:07;;;;;;;;;;;10.80;99.90;;;;;;5112238;28;934;-51
2021/12/03 04:11:34;;;;;;;;;;;10.80;99.90;;;;;;5115705;28;1000;-51
2021/12/03 04:14:00;;;;;;;;;;;10.80;99.90;;;;;;5116088;28;885;-52
2021/12/03 04:16:28;;;;;;;;;;;10.80;99.90;;;;;;5115562;28;949;-51
2021/12/03 04:18:55;;;;;;;;;;;10.70;99.90;;;;;;5115863;28;1360;-51
2021/12/03 04:21:22;;;;;;;;;;;10.70;99.90;;;;;;5115529;28;1905;-51
2021/12/03 04:23:48;;;;;;;;;;;10.70;99.90;;;;;;5115768;28;1070;-51
2021/12/03 04:26:14;;;;;;;;;;;10.70;99.90;;;;;;5100630;28;870;-51
2021/12/03 04:28:40;;;;;;;;;;;10.70;99.90;;;;;;5108848;28;1040;-51
2021/12/03 04:31:06;;;;;;;;;;;10.70;99.90;;;;;;5117193;28;888;-51
2021/12/03 04:33:33;;;;;;;;;;;10.70;99.90;;;;;;5114334;28;924;-51
2021/12/03 04:36:00;;;;;;;;;;;10.70;99.90;;;;;;5114527;28;930;-51
2021/12/03 04:38:28;;;;;;;;;;;10.70;99.90;;;;;;5081752;28;1309;-51
2021/12/03 04:40:55;;;;;;;;;;;10.70;99.90;;;;;;5117060;28;879;-51
2021/12/03 04:43:21;;;;;;;;;;;10.70;99.90;;;;;;5116714;28;1989;-51
2021/12/03 04:52:10;;;;;;;;;;;10.70;99.90;;;;;;5014888;28;1368;-51
2021/12/03 04:54:36;;;;;;;;;;;10.70;99.90;;;;;;4999312;28;1074;-51
2021/12/03 04:57:05;;;;;;;;;;;10.70;99.90;;;;;;5016954;28;847;-51
2021/12/03 04:59:36;;;;;;;;;;;10.70;99.90;;;;;;5000074;28;1252;-51
2021/12/03 05:02:02;;;;;;;;;;;10.60;99.90;;;;;;5014919;28;1913;-51
2021/12/03 05:04:35;;;;;;;;;;;10.70;99.90;;;;;;5017661;28;1607;-51
2021/12/03 05:09:37;;;;;;;;;;;10.70;99.90;;;;;;5032232;28;1108;-51
2021/12/03 05:12:10;;;;;;;;;;;10.60;99.90;;;;;;5017550;28;929;-51
2021/12/03 05:14:39;;;;;;;;;;;10.60;99.90;;;;;;5016940;28;896;-51
2021/12/03 05:17:19;;;;;;;;;;;10.60;99.90;;;;;;5032225;28;856;-51
2021/12/03 05:19:45;;;;;;;;;;;10.60;99.90;;;;;;5016761;28;846;-51
2021/12/03 05:22:14;;;;;;;;;;;10.60;99.90;;;;;;5016788;28;1895;-51
2021/12/03 05:24:45;;;;;;;;;;;10.60;99.90;;;;;;5016815;28;920;-51
2021/12/03 05:27:14;;;;;;;;;;;10.60;99.90;;;;;;4998885;28;1127;-51
2021/12/03 05:29:41;;;;;;;;;;;10.60;99.90;;;;;;5016320;28;1364;-51
2021/12/03 05:32:11;;;;;;;;;;;10.60;99.90;;;;;;5015979;28;1052;-52
2021/12/03 05:34:39;;;;;;;;;;;10.60;99.90;;;;;;5016644;28;1006;-52
2021/12/03 05:37:13;;;;;;;;;;;10.60;99.90;;;;;;5016645;28;843;-51
2021/12/03 05:39:43;;;;;;;;;;;10.60;99.90;;;;;;5016571;28;873;-51
2021/12/03 05:42:09;;;;;;;;;;;10.60;99.90;;;;;;4998035;28;1964;-51
2021/12/03 05:44:36;;;;;;;;;;;10.50;99.90;;;;;;5031967;28;834;-53
2021/12/03 05:47:03;;;;;;;;;;;10.60;99.90;;;;;;4998599;28;937;-51
2021/12/03 05:49:29;;;;;;;;;;;10.60;99.90;;;;;;5015488;28;862;-52
2021/12/03 05:51:58;;;;;;;;;;;10.60;99.90;;;;;;5015030;28;1147;-52
2021/12/03 05:54:25;;;;;;;;;;;10.60;99.90;;;;;;5016548;28;951;-52
2021/12/03 05:57:00;;;;;;;;;;;10.60;99.90;;;;;;5016584;28;801;-52
2021/12/03 05:59:26;;;;;;;;;;;10.60;99.90;;;;;;4997489;28;1332;-51
2021/12/03 06:01:52;;;;;;;;;;;10.60;99.90;;;;;;5015860;28;1977;-51
2021/12/03 06:04:18;;;;;;;;;;;10.60;99.90;;;;;;5016245;28;1075;-51
2021/12/03 06:06:46;;;;;;;;;;;10.60;99.90;;;;;;5016366;28;920;-51
2021/12/03 06:09:19;;;;;;;;;;;10.70;99.90;;;;;;5016400;28;958;-51
2021/12/03 06:11:54;;;;;;;;;;;10.80;99.90;;;;;;5015799;28;1052;-55
2021/12/03 06:14:20;;;;;;;;;;;10.90;99.90;;;;;;4999143;28;1044;-55
2021/12/03 06:16:46;;;;;;;;;;;11.00;99.90;;;;;;5015951;28;935;-55
2021/12/03 06:19:17;;;;;;;;;;;11.10;99.90;;;;;;5026428;28;1140;-55
2021/12/03 06:21:45;;;;;;;;;;;11.30;99.90;;;;;;4998411;28;1957;-51
2021/12/03 06:24:17;;;;;;;;;;;11.50;99.90;;;;;;4998519;28;1200;-51
2021/12/03 06:26:45;;;;;;;;;;;11.70;99.90;;;;;;5013895;28;937;-51
2021/12/03 06:29:12;;;;;;;;;;;11.90;99.90;;;;;;5015971;28;887;-51
2021/12/03 06:31:39;;;;;;;;;;;12.00;99.90;;;;;;5015898;28;841;-51
2021/12/03 06:34:05;;;;;;;;;;;12.20;99.90;;;;;;5014433;28;1518;-51
2021/12/03 06:36:37;;;;;;;;;;;12.40;99.90;;;;;;5015767;28;849;-52
2021/12/03 06:39:04;;;;;;;;;;;12.60;99.90;;;;;;5015861;28;821;-55
2021/12/03 06:41:33;;;;;;;;;;;12.80;99.90;;;;;;4975218;28;1030;-51
2021/12/03 06:44:05;;;;;;;;;;;12.90;99.90;;;;;;4975269;28;1907;-55
2021/12/03 06:46:32;;;;;;;;;;;13.00;99.90;;;;;;4974678;28;1059;-52
2021/12/03 06:48:58;;;;;;;;;;;13.10;99.90;;;;;;4975463;28;1031;-52
2021/12/03 06:51:29;;;;;;;;;;;13.20;99.90;;;;;;4986530;28;1148;-52
2021/12/03 06:54:03;;;;;;;;;;;13.30;99.90;;;;;;4994402;28;1040;-52
2021/12/03 06:59:19;;;;;;;;;;;13.40;99.90;;;;;;4994520;28;881;-55
2021/12/03 07:01:48;;;;;;;;;;;13.40;99.90;;;;;;4995186;28;1390;-55
2021/12/03 07:04:14;;;;;;;;;;;13.50;99.90;;;;;;4998165;28;1018;-55
2021/12/03 07:06:45;;;;;;;;;;;13.50;99.90;;;;;;4998036;28;892;-55
2021/12/03 07:09:13;;;;;;;;;;;13.50;99.90;;;;;;4998113;28;949;-52
2021/12/03 07:11:41;;;;;;;;;;;13.50;99.90;;;;;;4998071;28;898;-55
2021/12/03 07:14:07;;;;;;;;;;;13.50;99.90;;;;;;4997997;28;944;-55
2021/12/03 07:16:41;;;;;;;;;;;13.50;99.90;;;;;;4981612;28;1300;-55
2021/12/03 07:19:12;;;;;;;;;;;13.50;99.90;;;;;;5008637;28;917;-51
2021/12/03 07:21:38;;;;;;;;;;;13.50;99.90;;;;;;5018849;28;1105;-52
2021/12/03 07:24:04;;;;;;;;;;;13.50;99.90;;;;;;4985171;28;1973;-52
2021/12/03 07:26:33;;;;;;;;;;;13.50;99.90;;;;;;5019356;28;888;-52
2021/12/03 07:28:59;;;;;;;;;;;13.60;99.90;;;;;;5018971;28;833;-52
2021/12/03 07:31:25;;;;;;;;;;;13.60;99.90;;;;;;5034161;28;1384;-52
2021/12/03 07:34:00;;;;;;;;;;;13.60;99.90;;;;;;5019251;28;904;-55
2021/12/03 07:36:28;;;;;;;;;;;13.60;99.90;;;;;;5033077;28;898;-55
2021/12/03 07:39:00;;;;;;;;;;;13.70;99.90;;;;;;5018830;28;895;-55
2021/12/03 07:41:26;;;;;;;;;;;13.70;99.90;;;;;;5019631;28;1100;-52
2021/12/03 07:43:52;;;;;;;;;;;13.70;99.90;;;;;;5016085;28;1910;-51
2021/12/03 07:46:18;;;;;;;;;;;13.70;99.90;;;;;;5018787;28;892;-51
2021/12/03 07:48:50;;;;;;;;;;;13.70;99.90;;;;;;5018566;28;856;-51
2021/12/03 07:51:17;;;;;;;;;;;13.70;99.90;;;;;;5018650;28;1251;-55
2021/12/03 07:53:43;;;;;;;;;;;13.60;99.90;;;;;;4982204;28;1121;-55
2021/12/03 07:56:31;;;;;;;;;;;13.60;99.90;;;;;;5014253;28;805;-51
2021/12/03 07:58:56;;;;;;;;;;;13.50;99.90;;;;;;5018548;28;837;-51
2021/12/03 08:01:25;;;;;;;;;;;13.40;99.90;;;;;;5033171;28;2375;-51
2021/12/03 08:03:52;;;;;;;;;;;13.40;99.90;;;;;;5018225;28;1910;-51
2021/12/03 08:06:22;;;;;;;;;;;13.30;99.90;;;;;;5018190;28;840;-55
2021/12/03 08:08:49;;;;;;;;;;;13.20;99.90;;;;;;5017904;28;976;-55
2021/12/03 08:11:15;;;;;;;;;;;13.10;99.90;;;;;;5016346;28;932;-51
2021/12/03 08:13:42;;;;;;;;;;;13.10;99.90;;;;;;4967495;28;909;-55
2021/12/03 08:16:09;;;;;;;;;;;13.00;99.90;;;;;;5017443;28;1073;-51
2021/12/03 08:18:38;;;;;;;;;;;13.00;99.90;;;;;;5006917;28;973;-55
2021/12/03 08:21:13;;;;;;;;;;;12.90;99.90;;;;;;5018161;28;982;-55
2021/12/03 08:23:39;;;;;;;;;;;12.90;99.90;;;;;;5033311;28;1910;-51
2021/12/03 08:26:05;;;;;;;;;;;12.90;99.90;;;;;;5018004;28;813;-55
2021/12/03 08:28:37;;;;;;;;;;;12.90;99.90;;;;;;5017850;28;876;-51
2021/12/03 08:31:03;;;;;;;;;;;12.90;99.90;;;;;;5017811;28;953;-55
2021/12/03 08:33:29;;;;;;;;;;;12.90;99.90;;;;;;5017722;28;857;-55
2021/12/03 08:35:54;;;;;;;;;;;12.90;99.90;;;;;;5017527;28;813;-55
2021/12/03 08:38:22;;;;;;;;;;;12.90;99.90;;;;;;5017521;28;930;-55
2021/12/03 08:40:49;;;;;;;;;;;12.90;99.90;;;;;;5017640;28;813;-55
2021/12/03 08:43:19;;;;;;;;;;;13.00;99.90;;;;;;5017421;28;1963;-51
2021/12/03 08:45:54;;;;;;;;;;;13.00;99.90;;;;;;5017400;28;884;-52
2021/12/03 08:48:23;;;;;;;;;;;13.00;99.90;;;;;;5017645;28;896;-55
2021/12/03 08:56:24;;;;;;;;;;;13.10;99.90;;;;;;5017665;28;1175;-55
2021/12/03 08:58:53;;;;;;;;;;;13.10;99.90;;;;;;5017306;28;866;-55
2021/12/03 09:01:20;;;;;;;;;;;13.10;99.90;;;;;;5016912;28;951;-55
2021/12/03 09:03:48;;;;;;;;;;;13.10;99.90;;;;;;5017137;28;1985;-55
2021/12/03 09:06:15;;;;;;;;;;;13.00;99.90;;;;;;5016950;28;948;-55
2021/12/03 09:08:42;;;;;;;;;;;13.00;99.90;;;;;;5017360;28;795;-55
2021/12/03 09:11:09;;;;;;;;;;;13.00;99.90;;;;;;5017220;28;956;-52
2021/12/03 09:13:35;;;;;;;;;;;13.00;99.90;;;;;;5017078;28;841;-51
2021/12/03 09:16:17;;;;;;;;;;;13.00;99.90;;;;;;5016501;28;1083;-52
2021/12/03 09:18:44;;;;;;;;;;;13.00;99.90;;;;;;4999164;28;1106;-51
2021/12/03 09:21:34;;;;;;;;;;;12.90;99.90;;;;;;4967663;28;1026;-52
2021/12/03 09:26:34;;;;;;;;;;;13.00;99.90;;;;;;5016036;28;837;-52
2021/12/03 09:29:15;;;;;;;;;;;13.00;99.90;;;;;;5017136;28;891;-51
2021/12/03 09:31:47;;;;;;;;;;;13.00;99.90;;;;;;5016503;28;860;-51
2021/12/03 09:34:16;;;;;;;;;;;13.00;99.90;;;;;;5015222;28;1401;-55
2021/12/03 09:36:43;;;;;;;;;;;13.10;99.90;;;;;;5015480;28;1315;-52
2021/12/03 09:39:19;;;;;;;;;;;13.10;99.90;;;;;;4975970;28;948;-51
2021/12/03 09:41:46;;;;;;;;;;;13.10;99.90;;;;;;4975189;28;854;-51
2021/12/03 09:44:32;;;;;;;;;;;13.10;99.90;;;;;;4975713;28;1971;-51
2021/12/03 09:47:19;;;;;;;;;;;13.10;99.90;;;;;;4936410;29;1014;-51
2021/12/03 09:50:01;;;;;;;;;;;13.10;99.90;;;;;;4934651;29;917;-56
2021/12/03 09:53:37;;;;;;;;;;;13.10;99.90;;;;;;4903051;29;1572;-55
2021/12/03 09:55:25;;;;;;;;;;;13.10;99.90;;;;;;4914534;29;1223;-51
2021/12/03 10:00:37;;;;;;;;;;;13.10;99.90;;;;;;4931550;29;895;-52
2021/12/03 10:28:22;;;;;;;;;;;13.30;99.90;;;;;;4955909;29;1435;-55
2021/12/03 10:34:29;;;;;;;;;;;13.30;99.90;;;;;;4955955;29;1261;-55
2021/12/03 10:37:21;;;;;;;;;;;13.30;99.90;;;;;;4941032;29;1434;-55
2021/12/03 10:40:11;;;;;;;;;;;13.20;99.90;;;;;;4958822;29;1155;-55
2021/12/03 10:42:54;;;;;;;;;;;13.20;99.90;;;;;;4959461;29;1910;-55
2021/12/03 10:45:37;;;;;;;;;;;13.10;99.90;;;;;;4959259;29;1142;-55
2021/12/03 10:53:58;;;;;;;;;;;13.00;99.90;;;;;;4962929;28;1513;-51
2021/12/03 10:56:49;;;;;;;;;;;13.00;99.90;;;;;;4974880;28;1190;-51
2021/12/03 11:05:46;;;;;;;;;;;12.90;99.90;;;;;;4990314;28;1575;-51
2021/12/03 12:23:56;;;;;;;;;;;12.90;99.90;;;;;;4977066;28;1907;-52
2021/12/03 13:09:33;;;;;;;;;;;12.60;99.90;;;;;;4923285;29;1137;-56
2021/12/03 13:20:33;;;;;;;;;;;12.60;99.90;;;;;;4952535;29;889;-51
2021/12/03 13:23:40;;;;;;;;;;;12.60;99.90;;;;;;4938274;29;1986;-55
2021/12/03 14:39:12;;;;;;;;;;;12.60;99.90;;;;;;4955282;29;989;-52
2021/12/03 14:42:23;;;;;;;;;;;12.70;99.90;;;;;;4955854;28;1194;-55
2021/12/03 14:47:53;;;;;;;;;;;12.90;99.90;;;;;;4974780;28;1263;-55
2021/12/03 14:55:35;;;;;;;;;;;12.80;99.90;;;;;;4937428;29;1114;-51
2021/12/03 14:58:11;;;;;;;;;;;12.80;99.90;;;;;;4937515;29;989;-51
2021/12/03 15:06:29;;;;;;;;;;;12.70;99.90;;;;;;4937500;29;1003;-52
2021/12/03 15:09:07;;;;;;;;;;;12.70;99.90;;;;;;4921904;29;826;-56
2021/12/03 15:25:26;;;;;;;;;;;12.50;99.90;;;;;;4999624;28;1899;-52
2021/12/03 15:33:39;;;;;;;;;;;12.30;99.90;;;;;;4999388;28;817;-52
2021/12/03 15:36:14;;;;;;;;;;;12.30;99.90;;;;;;4999475;28;977;-52
2021/12/03 16:03:28;;;;;;;;;;;12.20;99.90;;;;;;4997634;28;1159;-52
2021/12/03 16:15:16;;;;;;;;;;;12.50;99.90;;;;;;4998869;28;789;-52
2021/12/03 16:20:53;;;;;;;;;;;12.60;99.90;;;;;;4998565;28;833;-56
2021/12/03 16:24:06;;;;;;;;;;;12.70;99.90;;;;;;4994049;28;1914;-55
2021/12/03 16:54:10;;;;;;;;;;;12.80;99.90;;;;;;4997706;28;877;-55
2021/12/03 16:56:37;;;;;;;;;;;12.80;99.90;;;;;;4997779;28;932;-55
2021/12/03 16:59:06;;;;;;;;;;;12.70;99.90;;;;;;4996211;28;865;-52
2021/12/03 17:45:56;;;;;;;;;;;12.30;99.90;;;;;;4996663;28;1907;-56
2021/12/03 17:56:45;;;;;;;;;;;12.50;99.90;;;;;;4997037;28;1048;-52
2021/12/03 18:07:19;;;;;;;;;;;12.60;99.90;;;;;;4996583;28;877;-52
2021/12/03 18:10:00;;;;;;;;;;;12.70;99.90;;;;;;4996872;28;885;-52
2021/12/03 18:48:44;;;;;;;;;;;12.40;99.90;;;;;;4996281;28;844;-52
2021/12/03 18:56:46;;;;;;;;;;;12.40;99.90;;;;;;4996165;28;1098;-52
2021/12/03 18:59:15;;;;;;;;;;;12.40;99.90;;;;;;4999786;28;923;-55
2021/12/03 19:01:44;;;;;;;;;;;12.40;99.90;;;;;;5000010;28;953;-55
2021/12/03 19:04:21;;;;;;;;;;;12.40;99.90;;;;;;4999768;28;1914;-55
2021/12/03 19:09:25;;;;;;;;;;;12.30;99.90;;;;;;5000045;28;862;-52
2021/12/03 19:12:12;;;;;;;;;;;12.30;99.90;;;;;;4999764;28;951;-55
2021/12/03 19:14:42;;;;;;;;;;;12.30;99.90;;;;;;4999563;28;902;-51
2021/12/03 19:17:08;;;;;;;;;;;12.30;99.90;;;;;;4998529;28;1071;-55
2021/12/03 19:19:44;;;;;;;;;;;12.30;99.90;;;;;;4999971;28;909;-55
2021/12/03 19:22:16;;;;;;;;;;;12.30;99.90;;;;;;4998781;28;936;-55
2021/12/03 19:24:43;;;;;;;;;;;12.30;99.90;;;;;;4999441;28;1907;-55
2021/12/03 19:27:11;;;;;;;;;;;12.30;99.90;;;;;;4999922;28;929;-52
2021/12/03 19:29:38;;;;;;;;;;;12.40;99.90;;;;;;4999681;28;870;-51
2021/12/03 19:32:07;;;;;;;;;;;12.40;99.90;;;;;;4982715;28;1229;-57
2021/12/03 19:34:34;;;;;;;;;;;12.50;99.90;;;;;;4999987;28;954;-55
2021/12/03 19:37:04;;;;;;;;;;;12.50;99.90;;;;;;4999557;28;857;-52
2021/12/03 19:39:39;;;;;;;;;;;12.60;99.90;;;;;;4999203;28;618;-56
2021/12/03 19:42:22;;;;;;;;;;;12.60;99.90;;;;;;4997835;28;1268;-55
2021/12/03 19:44:57;;;;;;;;;;;12.70;99.90;;;;;;4980409;28;1906;-57
2021/12/03 19:47:58;;;;;;;;;;;12.70;99.90;;;;;;4995616;28;1269;-52
2021/12/03 19:50:47;;;;;;;;;;;12.70;99.90;;;;;;4998662;28;1294;-52
2021/12/03 19:53:18;;;;;;;;;;;12.70;99.90;;;;;;4998869;28;884;-55
2021/12/03 19:55:52;;;;;;;;;;;12.70;99.90;;;;;;4998924;28;1162;-57
2021/12/03 19:58:39;;;;;;;;;;;12.70;99.90;;;;;;4988920;28;1376;-53
2021/12/03 20:01:08;;;;;;;;;;;12.60;99.90;;;;;;4998753;28;848;-57
2021/12/03 20:03:39;;;;;;;;;;;12.60;99.90;;;;;;4999020;28;1965;-52
2021/12/03 20:06:05;;;;;;;;;;;12.60;99.90;;;;;;4981425;28;861;-56
2021/12/03 20:08:30;;;;;;;;;;;12.60;99.90;;;;;;4979739;28;969;-55
2021/12/03 20:11:06;;;;;;;;;;;12.50;99.90;;;;;;4995844;28;980;-57
2021/12/03 20:13:44;;;;;;;;;;;12.50;99.90;;;;;;4998288;28;881;-52
2021/12/03 20:16:48;;;;;;;;;;;12.50;99.90;;;;;;4998606;28;1042;-52
2021/12/03 20:21:40;;;;;;;;;;;12.40;99.90;;;;;;4998708;28;1046;-56
2021/12/03 20:27:15;;;;;;;;;;;12.40;99.90;;;;;;4938860;29;1117;-55
2021/12/03 20:29:53;;;;;;;;;;;12.30;99.90;;;;;;4939192;29;1067;-52
2021/12/03 20:37:38;;;;;;;;;;;12.20;99.90;;;;;;4966970;28;1165;-55
2021/12/03 20:40:14;;;;;;;;;;;12.20;99.90;;;;;;4997699;28;1535;-55
2021/12/03 20:53:54;;;;;;;;;;;12.10;99.90;;;;;;4997727;28;1348;-56
2021/12/03 21:10:15;;;;;;;;;;;12.50;99.90;;;;;;4997499;28;1118;-56
2021/12/03 21:12:47;;;;;;;;;;;12.60;99.90;;;;;;4997476;28;921;-52
2021/12/03 21:15:34;;;;;;;;;;;12.70;99.90;;;;;;4997513;28;861;-52
2021/12/03 21:18:25;;;;;;;;;;;12.80;99.90;;;;;;4995005;28;1461;-51
2021/12/03 21:21:01;;;;;;;;;;;12.90;99.90;;;;;;4988503;28;1022;-52
2021/12/03 21:23:34;;;;;;;;;;;12.90;99.90;;;;;;4963593;28;1262;-52
2021/12/03 21:26:01;;;;;;;;;;;12.90;99.90;;;;;;4979542;28;1982;-51
2021/12/03 21:31:11;;;;;;;;;;;12.90;99.90;;;;;;4997118;28;935;-52
2021/12/03 21:39:26;;;;;;;;;;;12.80;99.90;;;;;;4997090;28;913;-55
2021/12/03 21:42:01;;;;;;;;;;;12.80;99.90;;;;;;4996844;28;889;-56
2021/12/03 21:44:30;;;;;;;;;;;12.70;99.90;;;;;;4996848;28;1964;-55
2021/12/03 21:47:02;;;;;;;;;;;12.70;99.90;;;;;;4978512;28;1068;-55
2021/12/03 21:49:31;;;;;;;;;;;12.70;99.90;;;;;;4979121;28;1406;-55
2021/12/03 21:52:06;;;;;;;;;;;12.60;99.90;;;;;;4984746;28;1068;-55
2021/12/03 21:54:32;;;;;;;;;;;12.60;99.90;;;;;;4994832;28;1311;-55
2021/12/03 21:57:02;;;;;;;;;;;12.60;99.90;;;;;;5010195;28;1141;-55
2021/12/03 21:59:31;;;;;;;;;;;12.50;99.90;;;;;;5011236;28;1098;-55
2021/12/03 22:02:05;;;;;;;;;;;12.50;99.90;;;;;;4995763;28;1426;-55
2021/12/03 22:04:45;;;;;;;;;;;12.50;99.90;;;;;;4996239;28;1902;-55
2021/12/03 22:07:15;;;;;;;;;;;12.40;99.90;;;;;;5013633;28;1438;-56
2021/12/03 22:09:45;;;;;;;;;;;12.40;99.90;;;;;;4995035;28;995;-56
2021/12/03 22:12:14;;;;;;;;;;;12.40;99.90;;;;;;4995731;28;883;-55
2021/12/03 22:14:45;;;;;;;;;;;12.40;99.90;;;;;;4995353;28;1150;-55
2021/12/03 22:17:16;;;;;;;;;;;12.30;99.90;;;;;;4995874;28;1074;-55
2021/12/03 22:19:43;;;;;;;;;;;12.30;99.90;;;;;;4995622;28;973;-55
2021/12/03 22:22:11;;;;;;;;;;;12.30;99.90;;;;;;4995689;28;883;-55
2021/12/03 22:24:41;;;;;;;;;;;12.20;99.90;;;;;;4996070;28;1973;-55
2021/12/03 22:27:11;;;;;;;;;;;12.20;99.90;;;;;;5010713;28;891;-55
2021/12/03 22:29:39;;;;;;;;;;;12.20;99.90;;;;;;4996771;28;1120;-55
2021/12/03 22:32:30;;;;;;;;;;;12.20;99.90;;;;;;5011379;28;1142;-55
2021/12/03 22:35:02;;;;;;;;;;;12.10;99.90;;;;;;5000374;28;1123;-55
2021/12/03 22:37:28;;;;;;;;;;;12.10;99.90;;;;;;4999723;28;849;-55
2021/12/03 22:39:54;;;;;;;;;;;12.10;99.90;;;;;;4999477;28;900;-56
2021/12/03 22:42:20;;;;;;;;;;;12.10;99.90;;;;;;5000436;28;854;-55
2021/12/03 22:44:46;;;;;;;;;;;12.10;99.90;;;;;;5000238;28;1898;-55
2021/12/03 22:47:32;;;;;;;;;;;12.10;99.90;;;;;;5000290;28;942;-56
2021/12/03 22:50:17;;;;;;;;;;;12.20;99.90;;;;;;5010418;28;1108;-55
2021/12/03 22:52:46;;;;;;;;;;;12.20;99.90;;;;;;5000063;28;1107;-55
2021/12/03 22:55:12;;;;;;;;;;;12.20;99.90;;;;;;4997390;28;1023;-55
2021/12/03 22:57:43;;;;;;;;;;;12.10;99.90;;;;;;4997865;28;1275;-55
2021/12/03 23:00:36;;;;;;;;;;;12.10;99.90;;;;;;4993805;28;904;-55
2021/12/03 23:03:14;;;;;;;;;;;12.10;99.90;;;;;;4991740;28;1291;-55
2021/12/03 23:05:41;;;;;;;;;;;12.10;99.90;;;;;;4997418;28;1972;-55
2021/12/03 23:08:18;;;;;;;;;;;12.10;99.90;;;;;;4997617;28;1051;-55
2021/12/03 23:10:47;;;;;;;;;;;12.10;99.90;;;;;;4997383;28;1025;-55
2021/12/03 23:13:14;;;;;;;;;;;12.10;99.90;;;;;;4997422;28;1012;-55
2021/12/03 23:15:43;;;;;;;;;;;12.10;99.90;;;;;;4997024;28;931;-55
2021/12/03 23:18:11;;;;;;;;;;;12.10;99.90;;;;;;4980998;28;975;-55
2021/12/03 23:20:38;;;;;;;;;;;12.10;99.90;;;;;;4988971;28;1185;-56
2021/12/03 23:23:12;;;;;;;;;;;12.10;99.90;;;;;;4978603;28;897;-55
2021/12/03 23:25:40;;;;;;;;;;;12.00;99.90;;;;;;4983976;28;1969;-55